createdAt,value
2019-04-24T01:11:59.619Z,14.20
2019-04-24T05:42:04.985Z,13.10
2019-04-24T05:47:09.588Z,13.50
2019-04-24T05:49:56.353Z,13.90
2019-04-24T05:52:24.314Z,14.30
2019-04-24T05:55:17.943Z,14.80
2019-04-24T06:00:27.682Z,15.20
2019-04-24T06:02:51.085Z,15.20
2019-04-24T06:05:33.533Z,15.30
2019-04-24T06:08:18.908Z,15.10
2019-04-24T06:13:37.553Z,14.50
2019-04-24T06:16:22.771Z,14.60
2019-04-24T06:21:54.070Z,15.50
2019-04-24T06:26:45.866Z,15.80
2019-04-24T06:32:14.432Z,16.50
2019-04-24T06:34:32.419Z,16.90
2019-04-24T06:37:20.971Z,17.40
2019-04-24T06:40:27.327Z,17.60
2019-04-24T06:45:35.107Z,18.20
2019-04-24T06:50:54.194Z,18.40
2019-04-24T06:55:41.917Z,19.10
2019-04-24T07:00:52.465Z,19.70
2019-04-24T07:09:20.175Z,21.30
2019-04-24T07:14:32.270Z,20.80
2019-04-24T07:17:20.221Z,21.10
2019-04-24T07:19:47.335Z,21.20
2019-04-24T07:22:51.661Z,20.90
2019-04-24T07:27:47.155Z,21.20
2019-04-24T07:33:00.313Z,20.70
2019-04-24T07:35:49.287Z,20.70
2019-04-24T07:38:11.631Z,21.20
2019-04-24T07:41:01.721Z,21.60
2019-04-24T07:46:11.135Z,20.90
2019-04-24T07:48:49.944Z,20.70
2019-04-24T07:57:01.183Z,21.00
2019-04-24T08:02:23.567Z,21.60
2019-04-24T08:07:29.065Z,22.00
2019-04-24T08:15:17.769Z,21.80
2019-04-24T08:25:19.533Z,22.00
2019-04-24T08:28:04.800Z,22.20
2019-04-24T08:30:28.635Z,22.10
2019-04-24T08:33:03.584Z,22.30
2019-04-24T08:35:46.698Z,22.50
2019-04-24T08:41:02.785Z,22.20
2019-04-24T08:43:38.257Z,22.40
2019-04-24T08:46:17.272Z,22.40
2019-04-24T08:51:42.190Z,23.00
2019-04-24T08:54:06.995Z,22.90
2019-04-24T08:57:20.872Z,23.10
2019-04-24T08:59:58.953Z,23.80
2019-04-24T09:02:37.747Z,24.20
2019-04-24T09:05:00.952Z,24.70
2019-04-24T09:07:50.511Z,24.30
2019-04-24T09:13:16.900Z,24.50
2019-04-24T09:15:37.073Z,25.40
2019-04-24T09:18:04.672Z,25.30
2019-04-24T09:23:10.885Z,26.00
2019-04-24T09:26:30.071Z,26.60
2019-04-24T09:28:48.245Z,26.70
2019-04-24T09:31:10.577Z,27.40
2019-04-24T09:36:42.789Z,26.60
2019-04-24T09:39:08.912Z,26.40
2019-04-24T09:41:55.314Z,26.40
2019-04-24T09:46:47.832Z,27.60
2019-04-24T09:49:05.616Z,27.60
2019-04-24T09:51:53.933Z,27.60
2019-04-24T09:59:34.689Z,28.00
2019-04-24T10:02:43.671Z,27.90
2019-04-24T10:05:08.211Z,27.60
2019-04-24T10:10:20.498Z,29.00
2019-04-24T10:15:40.763Z,29.40
2019-04-24T10:20:32.214Z,28.90
2019-04-24T10:23:15.280Z,28.70
2019-04-24T10:26:06.605Z,28.30
2019-04-24T10:28:59.215Z,27.80
2019-04-24T10:31:19.248Z,27.40
2019-04-24T10:36:57.425Z,26.70
2019-04-24T10:42:12.218Z,27.30
2019-04-24T10:48:00.277Z,28.60
2019-04-24T10:50:49.639Z,28.60
2019-04-24T10:53:21.096Z,28.70
2019-04-24T10:55:59.097Z,28.80
2019-04-24T10:58:22.725Z,28.80
2019-04-24T11:01:18.882Z,29.40
2019-04-24T11:06:28.499Z,31.00
2019-04-24T11:09:17.105Z,31.50
2019-04-24T11:11:58.279Z,32.20
2019-04-24T11:20:38.185Z,31.20
2019-04-24T11:23:05.559Z,30.30
2019-04-24T11:28:40.623Z,30.00
2019-04-24T11:31:11.953Z,29.60
2019-04-24T11:34:09.880Z,28.90
2019-04-24T11:44:12.488Z,30.20
2019-04-24T11:49:54.681Z,31.10
2019-04-24T11:53:03.095Z,31.20
2019-04-24T12:00:21.486Z,30.30
2019-04-24T12:03:02.889Z,31.70
2019-04-24T12:06:01.413Z,30.80
2019-04-24T12:08:32.314Z,30.10
2019-04-24T12:11:11.104Z,30.10
2019-04-24T12:14:01.111Z,30.30
2019-04-24T12:16:46.882Z,30.50
2019-04-24T12:19:28.799Z,31.20
2019-04-24T12:22:03.861Z,31.20
2019-04-24T12:24:38.816Z,31.70
2019-04-24T12:26:57.110Z,31.60
2019-04-24T12:29:42.180Z,31.50
2019-04-24T12:32:35.132Z,31.00
2019-04-24T12:35:14.355Z,30.50
2019-04-24T12:37:48.865Z,30.20
2019-04-24T12:43:00.121Z,28.70
2019-04-24T12:45:31.740Z,28.40
2019-04-24T12:47:53.118Z,28.20
2019-04-24T12:53:01.619Z,28.30
2019-04-24T12:59:08.457Z,28.10
2019-04-24T13:01:52.594Z,28.70
2019-04-24T13:06:58.273Z,26.80
2019-04-24T13:09:32.513Z,26.30
2019-04-24T13:20:02.803Z,25.50
2019-04-24T13:22:39.074Z,25.60
2019-04-24T13:25:43.187Z,25.50
2019-04-24T13:31:14.131Z,25.10
2019-04-24T13:33:38.615Z,25.10
2019-04-24T13:38:47.815Z,24.50
2019-04-24T13:41:08.119Z,24.50
2019-04-24T13:43:59.841Z,24.20
2019-04-24T13:46:07.754Z,24.30
2019-04-24T13:48:53.961Z,24.70
2019-04-24T13:54:00.670Z,24.40
2019-04-24T13:56:14.402Z,24.40
2019-04-24T13:58:54.963Z,24.60
2019-04-24T14:14:13.783Z,24.60
2019-04-24T14:16:48.513Z,24.80
2019-04-24T14:19:41.932Z,24.80
2019-04-24T14:24:57.841Z,24.50
2019-04-24T14:27:13.370Z,24.60
2019-04-24T14:29:42.221Z,24.90
2019-04-24T14:32:25.542Z,24.70
2019-04-24T14:37:21.126Z,24.80
2019-04-24T14:39:49.196Z,24.20
2019-04-24T14:42:20.766Z,23.90
2019-04-24T14:47:37.941Z,24.30
2019-04-24T14:52:42.060Z,24.70
2019-04-24T14:55:24.768Z,24.60
2019-04-24T14:57:51.046Z,24.70
2019-04-24T15:03:09.742Z,24.60
2019-04-24T15:05:28.645Z,24.90
2019-04-24T15:08:03.152Z,24.70
2019-04-24T15:13:03.030Z,24.30
2019-04-24T15:15:25.072Z,24.10
2019-04-24T15:18:32.054Z,24.30
2019-04-24T15:24:00.154Z,24.40
2019-04-24T15:28:46.590Z,24.70
2019-04-24T15:31:02.209Z,24.60
2019-04-24T15:33:47.695Z,24.80
2019-04-24T15:36:14.302Z,24.80
2019-04-24T15:38:50.293Z,24.60
2019-04-24T15:41:24.556Z,24.40
2019-04-24T15:43:53.045Z,23.90
2019-04-24T15:46:08.562Z,23.70
2019-04-24T15:48:51.526Z,23.80
2019-04-24T15:51:23.237Z,23.40
2019-04-24T15:53:17.100Z,23.10
2019-04-24T15:55:46.095Z,22.60
2019-04-24T15:58:25.882Z,22.30
2019-04-24T16:01:21.916Z,22.20
2019-04-24T16:04:04.891Z,22.10
2019-04-24T16:06:05.819Z,22.10
2019-04-24T16:08:36.083Z,22.00
2019-04-24T16:11:05.886Z,22.10
2019-04-24T16:13:41.111Z,22.40
2019-04-24T16:16:41.341Z,22.60
2019-04-24T16:21:37.890Z,22.50
2019-04-24T16:26:48.816Z,22.20
2019-04-24T16:39:18.268Z,22.00
2019-04-24T16:44:34.340Z,22.00
2019-04-24T16:49:36.737Z,22.10
2019-04-24T16:52:08.946Z,22.10
2019-04-24T16:54:20.041Z,22.00
2019-04-24T16:57:04.983Z,21.80
2019-04-24T16:59:21.892Z,21.60
2019-04-24T17:04:54.088Z,21.40
2019-04-24T17:09:49.689Z,21.60
2019-04-24T17:15:04.208Z,22.00
2019-04-24T17:20:07.561Z,22.10
2019-04-24T17:22:56.524Z,21.80
2019-04-24T17:25:12.331Z,21.60
2019-04-24T17:27:40.677Z,21.40
2019-04-24T17:32:45.475Z,21.50
2019-04-24T17:37:17.684Z,21.00
2019-04-24T17:39:52.698Z,19.90
2019-04-24T17:42:36.393Z,18.80
2019-04-24T17:45:20.505Z,18.20
2019-04-24T17:50:21.480Z,16.70
2019-04-24T17:55:32.117Z,15.20
2019-04-24T17:57:51.675Z,14.90
2019-04-24T18:00:06.313Z,14.70
2019-04-24T18:02:35.143Z,14.20
2019-04-24T18:05:04.761Z,13.90
2019-04-24T18:07:34.619Z,13.70
2019-04-24T18:10:06.281Z,13.40
2019-04-24T18:12:36.181Z,13.20
2019-04-24T18:15:05.367Z,12.90
2019-04-24T18:17:37.204Z,12.70
2019-04-24T18:20:06.727Z,12.50
2019-04-24T18:22:40.454Z,12.30
2019-04-24T18:25:18.212Z,12.10
2019-04-24T18:27:49.599Z,12.00
2019-04-24T18:30:22.182Z,11.70
2019-04-24T18:32:52.621Z,11.40
2019-04-24T18:35:22.376Z,11.30
2019-04-24T18:37:54.061Z,11.10
2019-04-24T18:40:22.995Z,10.90
2019-04-24T18:42:52.888Z,10.90
2019-04-24T18:45:22.265Z,10.70
2019-04-24T18:47:53.268Z,10.70
2019-04-24T18:50:23.100Z,10.60
2019-04-24T18:52:52.793Z,10.60
2019-04-24T18:55:21.923Z,10.70
2019-04-24T18:57:51.175Z,10.70
2019-04-24T19:00:21.819Z,10.60
2019-04-24T19:02:53.899Z,10.60
2019-04-24T19:05:23.609Z,10.60
2019-04-24T19:07:52.778Z,10.50
2019-04-24T19:10:21.761Z,10.50
2019-04-24T19:12:51.960Z,10.50
2019-04-24T19:15:22.140Z,10.60
2019-04-24T19:17:55.028Z,10.60
2019-04-24T19:20:23.232Z,10.40
2019-04-24T19:23:01.737Z,10.40
2019-04-24T19:25:23.543Z,10.40
2019-04-24T19:27:52.678Z,10.20
2019-04-24T19:30:23.981Z,10.10
2019-04-24T19:32:53.531Z,10.00
2019-04-24T19:35:23.088Z,10.00
2019-04-24T19:37:52.534Z,10.10
2019-04-24T19:40:36.970Z,10.10
2019-04-24T19:42:53.660Z,10.20
2019-04-24T19:45:25.355Z,10.20
2019-04-24T19:47:54.120Z,10.30
2019-04-24T19:50:24.840Z,10.40
2019-04-24T19:52:55.361Z,10.50
2019-04-24T19:55:25.430Z,10.20
2019-04-24T19:57:55.240Z,10.00
2019-04-24T20:00:26.095Z,9.80
2019-04-24T20:02:55.335Z,9.60
2019-04-24T20:05:24.357Z,9.50
2019-04-24T20:07:53.194Z,9.40
2019-04-24T20:10:28.361Z,9.20
2019-04-24T20:12:57.397Z,9.10
2019-04-24T20:15:27.158Z,9.10
2019-04-24T20:17:57.023Z,9.10
2019-04-24T20:20:27.029Z,9.10
2019-04-24T20:22:56.763Z,9.30
2019-04-24T20:25:26.201Z,9.30
2019-04-24T20:27:56.031Z,9.50
2019-04-24T20:30:25.538Z,9.50
2019-04-24T20:32:54.447Z,9.30
2019-04-24T20:35:24.952Z,9.20
2019-04-24T20:37:55.491Z,9.30
2019-04-24T20:40:25.623Z,9.30
2019-04-24T20:42:55.361Z,9.10
2019-04-24T20:45:24.412Z,9.20
2019-04-24T20:47:54.182Z,9.20
2019-04-24T20:50:24.286Z,9.20
2019-04-24T20:52:54.178Z,9.00
2019-04-24T20:55:23.599Z,8.80
2019-04-24T20:57:52.835Z,8.50
2019-04-24T21:00:26.151Z,8.40
2019-04-24T21:02:55.477Z,8.30
2019-04-24T21:05:34.108Z,8.50
2019-04-24T21:08:26.805Z,8.60
2019-04-24T21:10:57.428Z,8.70
2019-04-24T21:13:27.036Z,8.80
2019-04-24T21:15:56.340Z,8.90
2019-04-24T21:18:28.344Z,9.00
2019-04-24T21:20:57.929Z,9.00
2019-04-24T21:23:27.335Z,9.10
2019-04-24T21:25:56.467Z,9.10
2019-04-24T21:28:26.628Z,9.30
2019-04-24T21:30:56.740Z,9.30
2019-04-24T21:33:26.028Z,9.40
2019-04-24T21:35:55.674Z,9.30
2019-04-24T21:38:26.924Z,9.30
2019-04-24T21:40:56.007Z,9.20
2019-04-24T21:43:29.040Z,9.20
2019-04-24T21:45:56.255Z,9.20
2019-04-24T21:48:26.022Z,9.20
2019-04-24T21:50:56.011Z,9.10
2019-04-24T21:53:25.087Z,9.00
2019-04-24T21:55:54.970Z,9.00
2019-04-24T21:58:25.115Z,9.10
2019-04-24T22:01:12.753Z,9.10
2019-04-24T22:04:01.272Z,9.00
2019-04-24T22:06:36.304Z,8.90
2019-04-24T22:09:11.494Z,8.80
2019-04-24T22:11:41.571Z,8.80
2019-04-24T22:14:11.482Z,8.70
2019-04-24T22:16:41.704Z,8.20
2019-04-24T22:19:11.314Z,7.60
2019-04-24T22:21:44.887Z,6.90
2019-04-24T22:24:33.712Z,6.60
2019-04-24T22:27:06.593Z,6.60
2019-04-24T22:29:37.012Z,6.80
2019-04-24T22:32:27.287Z,7.00
2019-04-24T22:34:57.603Z,7.10
2019-04-24T22:37:27.767Z,7.00
2019-04-24T22:40:03.531Z,7.00
2019-04-24T22:42:33.788Z,6.90
2019-04-24T22:45:02.985Z,6.90
2019-04-24T22:47:32.550Z,6.80
2019-04-24T22:50:02.676Z,6.80
2019-04-24T22:52:32.907Z,6.80
2019-04-24T22:55:04.420Z,6.80
2019-04-24T22:57:34.082Z,6.90
2019-04-24T23:00:04.981Z,6.90
2019-04-24T23:02:34.570Z,6.90
2019-04-24T23:05:04.322Z,6.90
2019-04-24T23:07:34.220Z,7.00
2019-04-24T23:10:03.232Z,7.00
2019-04-24T23:12:32.869Z,7.00
2019-04-24T23:15:02.714Z,7.00
2019-04-24T23:17:32.733Z,7.10
2019-04-24T23:20:01.880Z,7.20
2019-04-24T23:22:44.955Z,7.20
2019-04-24T23:25:23.027Z,7.30
2019-04-24T23:27:58.112Z,7.40
2019-04-24T23:30:44.973Z,7.30
2019-04-24T23:33:26.402Z,7.30
2019-04-24T23:35:56.311Z,7.30
2019-04-24T23:38:25.377Z,7.20
2019-04-24T23:40:55.380Z,7.00
2019-04-24T23:43:24.279Z,6.90
2019-04-24T23:45:53.723Z,6.90
2019-04-24T23:48:22.633Z,6.90
2019-04-24T23:50:52.530Z,6.90
2019-04-24T23:53:21.508Z,7.00
2019-04-24T23:55:51.082Z,7.00
2019-04-24T23:58:19.872Z,7.10
